Anvik, Alaska
Current Conditions -  °F | °C
As of 1:56 AM on Friday 24 Oct 2014 (Local Time) from PANV Reporting Station
Broken Clouds Broken Clouds  
Wind Chill: 21°   Ceiling: 7000
Heat Index: 27°   Visibility: 10mi
Dew Point: 23°   Wind: 5mph
Humidity: 86%   Direction: 270°W
Pressure: 29.71"   Gusts: NA
Location:  62.66°N, 160.21°W
Report Text: PANV 240956Z AUTO 27004KT 10SM FEW015 SCT033 BKN070 M03/M05 A2971 RMK AO1
Loading
Personal Weather Stations






























Interactive Weather Map
Tropical Storm Tracking
New forecast layout! Learn more

10-Day Weather Forecast

Advertisements
Track Severe Weather on mobile